sensor_id;sensor_type;location;lat;lon;timestamp;pressure;altitude;pressure_sealevel;temperature;humidity
20017;BME280;10169;42.664;23.610;2023-05-29T00:01:48;95131.63;;;13.06;100.00
20017;BME280;10169;42.664;23.610;2023-05-29T00:03:48;95131.56;;;13.01;100.00
20017;BME280;10169;42.664;23.610;2023-05-29T00:05:49;95138.88;;;13.11;100.00
20017;BME280;10169;42.664;23.610;2023-05-29T00:07:49;95135.28;;;13.00;100.00
20017;BME280;10169;42.664;23.610;2023-05-29T00:09:50;95136.09;;;13.01;100.00
20017;BME280;10169;42.664;23.610;2023-05-29T00:11:50;95134.25;;;13.01;100.00
20017;BME280;10169;42.664;23.610;2023-05-29T00:13:52;95131.75;;;12.90;100.00
20017;BME280;10169;42.664;23.610;2023-05-29T00:15:52;95138.41;;;12.87;100.00
20017;BME280;10169;42.664;23.610;2023-05-29T00:17:52;95142.06;;;12.76;100.00
20017;BME280;10169;42.664;23.610;2023-05-29T00:19:53;95137.81;;;12.75;100.00
20017;BME280;10169;42.664;23.610;2023-05-29T00:21:53;95134.56;;;12.73;100.00
20017;BME280;10169;42.664;23.610;2023-05-29T00:23:53;95127.34;;;12.64;100.00
20017;BME280;10169;42.664;23.610;2023-05-29T00:25:54;95130.00;;;12.69;100.00
20017;BME280;10169;42.664;23.610;2023-05-29T00:27:54;95125.22;;;12.66;100.00
20017;BME280;10169;42.664;23.610;2023-05-29T00:29:54;95123.88;;;12.63;100.00
20017;BME280;10169;42.664;23.610;2023-05-29T00:31:54;95121.25;;;12.73;100.00
20017;BME280;10169;42.664;23.610;2023-05-29T00:33:55;95122.31;;;12.72;100.00
20017;BME280;10169;42.664;23.610;2023-05-29T00:35:55;95121.19;;;12.63;100.00
20017;BME280;10169;42.664;23.610;2023-05-29T00:37:55;95126.66;;;12.47;100.00
20017;BME280;10169;42.664;23.610;2023-05-29T00:39:56;95126.84;;;12.35;100.00
20017;BME280;10169;42.664;23.610;2023-05-29T00:41:56;95117.75;;;12.31;100.00
20017;BME280;10169;42.664;23.610;2023-05-29T00:43:57;95121.00;;;12.38;100.00
20017;BME280;10169;42.664;23.610;2023-05-29T00:45:57;95128.63;;;12.24;100.00
20017;BME280;10169;42.664;23.610;2023-05-29T00:47:58;95139.19;;;12.14;100.00
20017;BME280;10169;42.664;23.610;2023-05-29T00:49:58;95137.34;;;12.15;100.00
20017;BME280;10169;42.664;23.610;2023-05-29T00:51:59;95143.44;;;12.10;100.00
20017;BME280;10169;42.664;23.610;2023-05-29T00:54:00;95144.97;;;12.06;100.00
20017;BME280;10169;42.664;23.610;2023-05-29T00:56:00;95140.72;;;12.05;100.00
20017;BME280;10169;42.664;23.610;2023-05-29T00:58:01;95141.16;;;11.97;100.00
20017;BME280;10169;42.664;23.610;2023-05-29T01:00:02;95139.03;;;11.99;100.00
20017;BME280;10169;42.664;23.610;2023-05-29T01:02:05;95147.34;;;12.03;100.00
20017;BME280;10169;42.664;23.610;2023-05-29T01:04:06;95145.31;;;11.88;100.00
20017;BME280;10169;42.664;23.610;2023-05-29T01:06:09;95151.00;;;11.97;100.00
20017;BME280;10169;42.664;23.610;2023-05-29T01:08:10;95154.91;;;11.89;100.00
20017;BME280;10169;42.664;23.610;2023-05-29T01:10:10;95142.56;;;11.78;100.00
20017;BME280;10169;42.664;23.610;2023-05-29T01:14:17;95142.22;;;11.70;100.00
20017;BME280;10169;42.664;23.610;2023-05-29T01:16:26;95144.50;;;11.66;100.00
20017;BME280;10169;42.664;23.610;2023-05-29T01:18:39;95142.38;;;11.63;100.00
20017;BME280;10169;42.664;23.610;2023-05-29T01:20:50;95134.38;;;11.63;100.00
20017;BME280;10169;42.664;23.610;2023-05-29T01:23:06;95136.53;;;11.66;100.00
20017;BME280;10169;42.664;23.610;2023-05-29T01:27:10;95137.59;;;11.65;100.00
20017;BME280;10169;42.664;23.610;2023-05-29T01:29:12;95134.63;;;11.61;100.00
20017;BME280;10169;42.664;23.610;2023-05-29T01:31:14;95130.09;;;11.62;100.00
20017;BME280;10169;42.664;23.610;2023-05-29T01:33:16;95128.81;;;11.64;100.00
20017;BME280;10169;42.664;23.610;2023-05-29T01:35:16;95123.69;;;11.58;100.00
20017;BME280;10169;42.664;23.610;2023-05-29T01:37:17;95120.53;;;11.61;100.00
20017;BME280;10169;42.664;23.610;2023-05-29T01:39:17;95119.94;;;11.59;100.00
20017;BME280;10169;42.664;23.610;2023-05-29T01:41:19;95120.22;;;11.57;100.00
20017;BME280;10169;42.664;23.610;2023-05-29T01:43:19;95122.50;;;11.71;100.00
20017;BME280;10169;42.664;23.610;2023-05-29T01:45:20;95131.22;;;11.66;100.00
20017;BME280;10169;42.664;23.610;2023-05-29T01:47:20;95121.16;;;11.46;100.00
20017;BME280;10169;42.664;23.610;2023-05-29T01:49:21;95120.41;;;11.51;100.00
20017;BME280;10169;42.664;23.610;2023-05-29T01:51:23;95120.47;;;11.56;100.00
20017;BME280;10169;42.664;23.610;2023-05-29T01:53:23;95123.13;;;11.56;100.00
20017;BME280;10169;42.664;23.610;2023-05-29T01:55:24;95113.44;;;11.45;100.00
20017;BME280;10169;42.664;23.610;2023-05-29T01:57:24;95124.50;;;11.58;100.00
20017;BME280;10169;42.664;23.610;2023-05-29T01:59:25;95117.06;;;11.60;100.00
20017;BME280;10169;42.664;23.610;2023-05-29T02:01:26;95118.16;;;11.64;100.00
20017;BME280;10169;42.664;23.610;2023-05-29T02:03:26;95114.06;;;11.57;100.00
20017;BME280;10169;42.664;23.610;2023-05-29T02:05:30;95112.41;;;11.51;100.00
20017;BME280;10169;42.664;23.610;2023-05-29T02:07:30;95121.84;;;11.63;100.00
20017;BME280;10169;42.664;23.610;2023-05-29T02:09:30;95107.50;;;11.64;100.00
20017;BME280;10169;42.664;23.610;2023-05-29T02:11:31;95112.38;;;11.68;100.00
20017;BME280;10169;42.664;23.610;2023-05-29T02:13:31;95114.69;;;11.86;100.00
20017;BME280;10169;42.664;23.610;2023-05-29T02:15:31;95115.06;;;11.99;100.00
20017;BME280;10169;42.664;23.610;2023-05-29T02:17:32;95115.25;;;11.88;100.00
20017;BME280;10169;42.664;23.610;2023-05-29T02:19:33;95115.72;;;11.85;100.00
20017;BME280;10169;42.664;23.610;2023-05-29T02:21:33;95113.81;;;11.80;100.00
20017;BME280;10169;42.664;23.610;2023-05-29T02:23:33;95109.75;;;11.73;100.00
20017;BME280;10169;42.664;23.610;2023-05-29T02:25:34;95123.59;;;11.75;100.00
20017;BME280;10169;42.664;23.610;2023-05-29T02:27:34;95119.22;;;11.85;100.00
20017;BME280;10169;42.664;23.610;2023-05-29T02:29:34;95122.50;;;11.71;100.00
20017;BME280;10169;42.664;23.610;2023-05-29T02:31:35;95108.28;;;11.38;100.00
20017;BME280;10169;42.664;23.610;2023-05-29T02:33:35;95130.97;;;11.46;100.00
20017;BME280;10169;42.664;23.610;2023-05-29T02:35:35;95136.25;;;11.62;100.00
20017;BME280;10169;42.664;23.610;2023-05-29T02:37:36;95130.56;;;11.76;100.00
20017;BME280;10169;42.664;23.610;2023-05-29T02:39:36;95133.41;;;11.69;100.00
20017;BME280;10169;42.664;23.610;2023-05-29T02:41:36;95140.72;;;11.79;100.00
20017;BME280;10169;42.664;23.610;2023-05-29T02:43:36;95138.59;;;11.81;100.00
20017;BME280;10169;42.664;23.610;2023-05-29T02:45:37;95141.06;;;11.87;100.00
20017;BME280;10169;42.664;23.610;2023-05-29T02:47:37;95143.22;;;11.90;100.00
20017;BME280;10169;42.664;23.610;2023-05-29T02:49:37;95133.22;;;12.02;100.00
20017;BME280;10169;42.664;23.610;2023-05-29T02:51:38;95135.19;;;11.85;100.00
20017;BME280;10169;42.664;23.610;2023-05-29T02:53:38;95141.19;;;12.02;100.00
20017;BME280;10169;42.664;23.610;2023-05-29T02:55:38;95132.28;;;11.65;100.00
20017;BME280;10169;42.664;23.610;2023-05-29T02:57:39;95129.34;;;11.66;100.00
20017;BME280;10169;42.664;23.610;2023-05-29T02:59:40;95131.03;;;11.73;100.00
20017;BME280;10169;42.664;23.610;2023-05-29T03:01:40;95140.91;;;11.72;100.00
20017;BME280;10169;42.664;23.610;2023-05-29T03:03:41;95132.47;;;11.58;100.00
20017;BME280;10169;42.664;23.610;2023-05-29T03:05:41;95133.84;;;11.39;100.00
20017;BME280;10169;42.664;23.610;2023-05-29T03:07:41;95140.16;;;11.33;100.00
20017;BME280;10169;42.664;23.610;2023-05-29T03:09:42;95140.78;;;11.40;100.00
20017;BME280;10169;42.664;23.610;2023-05-29T03:11:42;95130.94;;;11.41;100.00
20017;BME280;10169;42.664;23.610;2023-05-29T03:13:44;95133.72;;;11.29;100.00
20017;BME280;10169;42.664;23.610;2023-05-29T03:15:46;95134.84;;;11.12;100.00
20017;BME280;10169;42.664;23.610;2023-05-29T03:17:47;95138.09;;;11.19;100.00
20017;BME280;10169;42.664;23.610;2023-05-29T03:19:47;95133.59;;;11.19;100.00
20017;BME280;10169;42.664;23.610;2023-05-29T03:21:48;95139.22;;;11.44;100.00
20017;BME280;10169;42.664;23.610;2023-05-29T03:23:48;95147.22;;;11.44;100.00
20017;BME280;10169;42.664;23.610;2023-05-29T03:25:48;95144.81;;;11.43;100.00
20017;BME280;10169;42.664;23.610;2023-05-29T03:27:48;95144.66;;;11.54;100.00
20017;BME280;10169;42.664;23.610;2023-05-29T03:29:49;95144.91;;;11.75;100.00
20017;BME280;10169;42.664;23.610;2023-05-29T03:31:49;95148.63;;;11.74;100.00
20017;BME280;10169;42.664;23.610;2023-05-29T03:33:50;95147.53;;;11.70;100.00
20017;BME280;10169;42.664;23.610;2023-05-29T03:35:50;95152.75;;;11.64;100.00
20017;BME280;10169;42.664;23.610;2023-05-29T03:37:50;95151.88;;;11.59;100.00
20017;BME280;10169;42.664;23.610;2023-05-29T03:39:51;95150.78;;;11.55;100.00
20017;BME280;10169;42.664;23.610;2023-05-29T03:41:51;95143.69;;;11.60;100.00
20017;BME280;10169;42.664;23.610;2023-05-29T03:43:51;95144.97;;;11.58;100.00
20017;BME280;10169;42.664;23.610;2023-05-29T03:45:51;95148.19;;;11.82;100.00
20017;BME280;10169;42.664;23.610;2023-05-29T03:47:52;95155.69;;;11.85;100.00
20017;BME280;10169;42.664;23.610;2023-05-29T03:49:52;95169.19;;;11.78;100.00
20017;BME280;10169;42.664;23.610;2023-05-29T03:51:52;95164.06;;;11.72;100.00
20017;BME280;10169;42.664;23.610;2023-05-29T03:53:52;95170.75;;;11.74;100.00
20017;BME280;10169;42.664;23.610;2023-05-29T03:55:53;95169.25;;;11.83;100.00
20017;BME280;10169;42.664;23.610;2023-05-29T03:57:53;95172.69;;;11.84;100.00
20017;BME280;10169;42.664;23.610;2023-05-29T03:59:53;95174.72;;;11.98;100.00
20017;BME280;10169;42.664;23.610;2023-05-29T04:01:54;95174.03;;;12.08;100.00
20017;BME280;10169;42.664;23.610;2023-05-29T04:03:54;95177.78;;;12.12;100.00
20017;BME280;10169;42.664;23.610;2023-05-29T04:05:55;95180.72;;;12.10;100.00
20017;BME280;10169;42.664;23.610;2023-05-29T04:07:55;95181.50;;;12.11;100.00
20017;BME280;10169;42.664;23.610;2023-05-29T04:09:55;95191.38;;;12.10;100.00
20017;BME280;10169;42.664;23.610;2023-05-29T04:11:56;95192.69;;;12.08;100.00
20017;BME280;10169;42.664;23.610;2023-05-29T04:13:56;95192.22;;;12.16;100.00
20017;BME280;10169;42.664;23.610;2023-05-29T04:15:56;95190.97;;;12.23;100.00
20017;BME280;10169;42.664;23.610;2023-05-29T04:17:57;95191.91;;;12.39;100.00
20017;BME280;10169;42.664;23.610;2023-05-29T04:19:57;95181.25;;;12.71;100.00
20017;BME280;10169;42.664;23.610;2023-05-29T04:21:58;95188.28;;;12.87;100.00
20017;BME280;10169;42.664;23.610;2023-05-29T04:23:58;95180.81;;;13.26;100.00
20017;BME280;10169;42.664;23.610;2023-05-29T04:25:59;95186.81;;;13.48;100.00
20017;BME280;10169;42.664;23.610;2023-05-29T04:28:02;95183.97;;;13.74;100.00
20017;BME280;10169;42.664;23.610;2023-05-29T04:30:04;95183.03;;;14.11;100.00
20017;BME280;10169;42.664;23.610;2023-05-29T04:32:04;95178.78;;;14.20;100.00
20017;BME280;10169;42.664;23.610;2023-05-29T04:34:05;95176.38;;;14.23;100.00
20017;BME280;10169;42.664;23.610;2023-05-29T04:36:05;95160.91;;;14.35;100.00
20017;BME280;10169;42.664;23.610;2023-05-29T04:38:05;95151.03;;;14.46;100.00
20017;BME280;10169;42.664;23.610;2023-05-29T04:40:06;95155.03;;;14.48;100.00
20017;BME280;10169;42.664;23.610;2023-05-29T04:42:10;95144.63;;;14.62;100.00
20017;BME280;10169;42.664;23.610;2023-05-29T04:44:10;95149.94;;;14.82;100.00
20017;BME280;10169;42.664;23.610;2023-05-29T04:46:11;95147.53;;;14.91;100.00
20017;BME280;10169;42.664;23.610;2023-05-29T04:48:12;95153.41;;;15.03;100.00
20017;BME280;10169;42.664;23.610;2023-05-29T04:50:13;95147.56;;;14.81;100.00
20017;BME280;10169;42.664;23.610;2023-05-29T04:52:13;95143.81;;;14.72;100.00
20017;BME280;10169;42.664;23.610;2023-05-29T04:54:14;95139.53;;;14.50;100.00
20017;BME280;10169;42.664;23.610;2023-05-29T04:56:14;95151.31;;;14.65;100.00
20017;BME280;10169;42.664;23.610;2023-05-29T04:58:15;95153.97;;;14.80;100.00
20017;BME280;10169;42.664;23.610;2023-05-29T05:00:15;95156.63;;;14.90;100.00
20017;BME280;10169;42.664;23.610;2023-05-29T05:02:16;95151.00;;;15.01;100.00
20017;BME280;10169;42.664;23.610;2023-05-29T05:04:16;95164.91;;;14.93;100.00
20017;BME280;10169;42.664;23.610;2023-05-29T05:06:17;95159.88;;;14.77;100.00
20017;BME280;10169;42.664;23.610;2023-05-29T05:08:17;95166.25;;;14.71;100.00
20017;BME280;10169;42.664;23.610;2023-05-29T05:10:18;95163.06;;;14.69;100.00
20017;BME280;10169;42.664;23.610;2023-05-29T05:12:18;95160.94;;;14.56;100.00
20017;BME280;10169;42.664;23.610;2023-05-29T05:14:18;95163.06;;;14.48;100.00
20017;BME280;10169;42.664;23.610;2023-05-29T05:16:18;95160.91;;;14.35;100.00
20017;BME280;10169;42.664;23.610;2023-05-29T05:18:19;95168.66;;;14.37;100.00
20017;BME280;10169;42.664;23.610;2023-05-29T05:20:19;95162.28;;;14.43;100.00
20017;BME280;10169;42.664;23.610;2023-05-29T05:22:20;95174.00;;;14.37;100.00
20017;BME280;10169;42.664;23.610;2023-05-29T05:24:20;95159.84;;;14.41;100.00
20017;BME280;10169;42.664;23.610;2023-05-29T05:26:20;95173.22;;;14.62;100.00
20017;BME280;10169;42.664;23.610;2023-05-29T05:28:22;95184.47;;;14.94;100.00
20017;BME280;10169;42.664;23.610;2023-05-29T05:30:22;95179.06;;;15.14;100.00
20017;BME280;10169;42.664;23.610;2023-05-29T05:32:22;95179.59;;;15.16;100.00
20017;BME280;10169;42.664;23.610;2023-05-29T05:34:22;95171.81;;;15.30;100.00
20017;BME280;10169;42.664;23.610;2023-05-29T05:36:23;95177.44;;;15.48;100.00
20017;BME280;10169;42.664;23.610;2023-05-29T05:38:23;95172.84;;;15.59;100.00
20017;BME280;10169;42.664;23.610;2023-05-29T05:40:24;95169.13;;;15.50;100.00
20017;BME280;10169;42.664;23.610;2023-05-29T05:42:25;95175.72;;;15.77;100.00
20017;BME280;10169;42.664;23.610;2023-05-29T05:44:25;95170.34;;;16.26;100.00
20017;BME280;10169;42.664;23.610;2023-05-29T05:46:26;95162.09;;;16.61;100.00
20017;BME280;10169;42.664;23.610;2023-05-29T05:48:26;95161.16;;;16.37;100.00
20017;BME280;10169;42.664;23.610;2023-05-29T05:50:26;95161.53;;;16.21;100.00
20017;BME280;10169;42.664;23.610;2023-05-29T05:52:27;95158.91;;;16.16;100.00
20017;BME280;10169;42.664;23.610;2023-05-29T05:54:30;95158.94;;;16.06;100.00
20017;BME280;10169;42.664;23.610;2023-05-29T05:56:31;95161.31;;;16.17;100.00
20017;BME280;10169;42.664;23.610;2023-05-29T05:58:31;95156.53;;;16.09;100.00
20017;BME280;10169;42.664;23.610;2023-05-29T06:00:31;95162.31;;;16.26;100.00
20017;BME280;10169;42.664;23.610;2023-05-29T06:02:32;95166.63;;;16.27;100.00
20017;BME280;10169;42.664;23.610;2023-05-29T06:04:32;95163.78;;;16.86;100.00
20017;BME280;10169;42.664;23.610;2023-05-29T06:06:32;95157.66;;;17.09;100.00
20017;BME280;10169;42.664;23.610;2023-05-29T06:08:33;95160.50;;;16.94;100.00
20017;BME280;10169;42.664;23.610;2023-05-29T06:10:33;95169.44;;;17.13;100.00
20017;BME280;10169;42.664;23.610;2023-05-29T06:12:34;95165.59;;;17.19;100.00
20017;BME280;10169;42.664;23.610;2023-05-29T06:14:37;95161.06;;;17.15;100.00
20017;BME280;10169;42.664;23.610;2023-05-29T06:16:37;95162.22;;;17.09;100.00
20017;BME280;10169;42.664;23.610;2023-05-29T06:18:37;95164.72;;;17.00;100.00
20017;BME280;10169;42.664;23.610;2023-05-29T06:20:38;95165.00;;;16.99;100.00
20017;BME280;10169;42.664;23.610;2023-05-29T06:22:38;95156.81;;;16.85;100.00
20017;BME280;10169;42.664;23.610;2023-05-29T06:24:38;95161.53;;;16.64;100.00
20017;BME280;10169;42.664;23.610;2023-05-29T06:26:39;95155.19;;;16.84;100.00
20017;BME280;10169;42.664;23.610;2023-05-29T06:28:39;95153.66;;;17.07;100.00
20017;BME280;10169;42.664;23.610;2023-05-29T06:30:39;95157.38;;;17.11;100.00
20017;BME280;10169;42.664;23.610;2023-05-29T06:32:40;95147.06;;;17.23;100.00
20017;BME280;10169;42.664;23.610;2023-05-29T06:34:40;95151.22;;;17.34;100.00
20017;BME280;10169;42.664;23.610;2023-05-29T06:36:41;95151.91;;;17.45;100.00
20017;BME280;10169;42.664;23.610;2023-05-29T06:38:48;95147.72;;;17.62;100.00
20017;BME280;10169;42.664;23.610;2023-05-29T06:40:48;95145.28;;;17.84;100.00
20017;BME280;10169;42.664;23.610;2023-05-29T06:42:48;95141.09;;;17.97;100.00
20017;BME280;10169;42.664;23.610;2023-05-29T06:44:49;95146.34;;;18.07;100.00
20017;BME280;10169;42.664;23.610;2023-05-29T06:46:49;95137.03;;;17.99;100.00
20017;BME280;10169;42.664;23.610;2023-05-29T06:48:49;95141.25;;;18.05;100.00
20017;BME280;10169;42.664;23.610;2023-05-29T06:50:50;95132.97;;;18.21;100.00
20017;BME280;10169;42.664;23.610;2023-05-29T06:52:50;95138.56;;;18.24;100.00
20017;BME280;10169;42.664;23.610;2023-05-29T06:54:50;95140.09;;;18.30;100.00
20017;BME280;10169;42.664;23.610;2023-05-29T06:56:51;95143.88;;;18.29;100.00
20017;BME280;10169;42.664;23.610;2023-05-29T06:58:52;95144.16;;;18.28;100.00
20017;BME280;10169;42.664;23.610;2023-05-29T07:00:52;95142.22;;;18.33;100.00
20017;BME280;10169;42.664;23.610;2023-05-29T07:02:53;95139.66;;;18.23;100.00
20017;BME280;10169;42.664;23.610;2023-05-29T07:04:53;95137.59;;;18.34;100.00
20017;BME280;10169;42.664;23.610;2023-05-29T07:06:53;95146.06;;;18.64;100.00
20017;BME280;10169;42.664;23.610;2023-05-29T07:08:54;95145.88;;;18.74;100.00
20017;BME280;10169;42.664;23.610;2023-05-29T07:10:54;95146.91;;;18.78;100.00
20017;BME280;10169;42.664;23.610;2023-05-29T07:12:55;95151.16;;;18.29;100.00
20017;BME280;10169;42.664;23.610;2023-05-29T07:14:55;95148.84;;;18.59;100.00
20017;BME280;10169;42.664;23.610;2023-05-29T07:16:55;95151.81;;;18.58;100.00
20017;BME280;10169;42.664;23.610;2023-05-29T07:18:56;95152.63;;;18.91;100.00
20017;BME280;10169;42.664;23.610;2023-05-29T07:20:56;95140.78;;;19.37;100.00
20017;BME280;10169;42.664;23.610;2023-05-29T07:22:57;95147.38;;;19.45;100.00
20017;BME280;10169;42.664;23.610;2023-05-29T07:24:57;95146.09;;;19.56;100.00
20017;BME280;10169;42.664;23.610;2023-05-29T07:26:57;95146.97;;;19.06;100.00
20017;BME280;10169;42.664;23.610;2023-05-29T07:28:57;95144.06;;;19.34;100.00
20017;BME280;10169;42.664;23.610;2023-05-29T07:30:58;95142.97;;;19.03;100.00
20017;BME280;10169;42.664;23.610;2023-05-29T07:32:58;95142.13;;;19.21;100.00
20017;BME280;10169;42.664;23.610;2023-05-29T07:34:58;95140.63;;;19.15;100.00
20017;BME280;10169;42.664;23.610;2023-05-29T07:37:05;95130.44;;;19.26;100.00
20017;BME280;10169;42.664;23.610;2023-05-29T07:39:06;95141.22;;;19.26;100.00
20017;BME280;10169;42.664;23.610;2023-05-29T07:41:07;95135.44;;;19.32;100.00
20017;BME280;10169;42.664;23.610;2023-05-29T07:43:08;95142.31;;;19.43;100.00
20017;BME280;10169;42.664;23.610;2023-05-29T07:45:08;95145.38;;;19.64;100.00
20017;BME280;10169;42.664;23.610;2023-05-29T07:47:09;95144.69;;;19.45;100.00
20017;BME280;10169;42.664;23.610;2023-05-29T07:49:09;95143.19;;;19.39;100.00
20017;BME280;10169;42.664;23.610;2023-05-29T07:51:10;95143.88;;;19.44;100.00
20017;BME280;10169;42.664;23.610;2023-05-29T07:53:11;95145.59;;;19.54;100.00
20017;BME280;10169;42.664;23.610;2023-05-29T07:55:11;95148.19;;;19.59;100.00
20017;BME280;10169;42.664;23.610;2023-05-29T07:57:12;95144.47;;;19.82;100.00
20017;BME280;10169;42.664;23.610;2023-05-29T07:59:12;95148.88;;;20.05;100.00
20017;BME280;10169;42.664;23.610;2023-05-29T08:01:13;95145.28;;;19.96;100.00
20017;BME280;10169;42.664;23.610;2023-05-29T08:03:13;95145.69;;;19.63;100.00
20017;BME280;10169;42.664;23.610;2023-05-29T08:05:14;95145.59;;;19.40;100.00
20017;BME280;10169;42.664;23.610;2023-05-29T08:07:15;95155.72;;;19.30;100.00
20017;BME280;10169;42.664;23.610;2023-05-29T08:09:15;95148.47;;;19.44;100.00
20017;BME280;10169;42.664;23.610;2023-05-29T08:11:15;95152.00;;;19.72;100.00
20017;BME280;10169;42.664;23.610;2023-05-29T08:13:16;95151.88;;;20.04;100.00
20017;BME280;10169;42.664;23.610;2023-05-29T08:15:16;95149.47;;;19.75;100.00
20017;BME280;10169;42.664;23.610;2023-05-29T08:17:16;95144.00;;;19.80;100.00
20017;BME280;10169;42.664;23.610;2023-05-29T08:19:17;95149.69;;;19.79;100.00
20017;BME280;10169;42.664;23.610;2023-05-29T08:21:17;95154.69;;;19.72;100.00
20017;BME280;10169;42.664;23.610;2023-05-29T08:23:18;95150.78;;;19.91;100.00
20017;BME280;10169;42.664;23.610;2023-05-29T08:25:18;95144.34;;;20.14;100.00
20017;BME280;10169;42.664;23.610;2023-05-29T08:27:18;95149.13;;;20.17;100.00
20017;BME280;10169;42.664;23.610;2023-05-29T08:29:18;95145.84;;;20.20;100.00
20017;BME280;10169;42.664;23.610;2023-05-29T08:31:19;95150.41;;;20.20;100.00
20017;BME280;10169;42.664;23.610;2023-05-29T08:33:19;95154.38;;;20.50;100.00
20017;BME280;10169;42.664;23.610;2023-05-29T08:35:19;95150.72;;;20.68;100.00
20017;BME280;10169;42.664;23.610;2023-05-29T08:37:20;95156.59;;;20.70;100.00
20017;BME280;10169;42.664;23.610;2023-05-29T08:39:20;95149.44;;;20.87;100.00
20017;BME280;10169;42.664;23.610;2023-05-29T08:41:21;95141.06;;;21.50;100.00
20017;BME280;10169;42.664;23.610;2023-05-29T08:43:25;95141.50;;;22.39;100.00
20017;BME280;10169;42.664;23.610;2023-05-29T08:45:29;95137.53;;;22.54;94.57
20017;BME280;10169;42.664;23.610;2023-05-29T08:47:33;95126.25;;;22.95;91.95
20017;BME280;10169;42.664;23.610;2023-05-29T08:49:37;95137.88;;;22.87;97.91
20017;BME280;10169;42.664;23.610;2023-05-29T08:51:40;95131.31;;;22.36;93.43
20017;BME280;10169;42.664;23.610;2023-05-29T08:53:43;95119.66;;;21.62;100.00
20017;BME280;10169;42.664;23.610;2023-05-29T08:55:43;95133.31;;;21.18;100.00
20017;BME280;10169;42.664;23.610;2023-05-29T08:57:45;95132.06;;;21.24;100.00
20017;BME280;10169;42.664;23.610;2023-05-29T08:59:47;95125.75;;;21.07;100.00
20017;BME280;10169;42.664;23.610;2023-05-29T09:01:51;95122.81;;;21.03;100.00
20017;BME280;10169;42.664;23.610;2023-05-29T09:03:51;95122.81;;;21.25;100.00
20017;BME280;10169;42.664;23.610;2023-05-29T09:05:51;95126.09;;;21.44;100.00
20017;BME280;10169;42.664;23.610;2023-05-29T09:07:58;95117.16;;;21.35;100.00
20017;BME280;10169;42.664;23.610;2023-05-29T09:09:58;95126.19;;;21.31;100.00
20017;BME280;10169;42.664;23.610;2023-05-29T09:11:59;95119.63;;;21.23;100.00
20017;BME280;10169;42.664;23.610;2023-05-29T09:13:59;95123.03;;;21.37;100.00
20017;BME280;10169;42.664;23.610;2023-05-29T09:16:00;95109.69;;;21.41;100.00
20017;BME280;10169;42.664;23.610;2023-05-29T09:18:03;95116.22;;;21.40;98.10
20017;BME280;10169;42.664;23.610;2023-05-29T09:20:06;95101.91;;;21.39;100.00
20017;BME280;10169;42.664;23.610;2023-05-29T09:22:14;95106.63;;;21.64;96.98
20017;BME280;10169;42.664;23.610;2023-05-29T09:24:15;95099.50;;;21.77;96.76
20017;BME280;10169;42.664;23.610;2023-05-29T09:26:15;95103.72;;;22.09;94.23
20017;BME280;10169;42.664;23.610;2023-05-29T09:28:17;95105.19;;;22.32;91.97
20017;BME280;10169;42.664;23.610;2023-05-29T09:32:37;95094.47;;;21.93;93.76
20017;BME280;10169;42.664;23.610;2023-05-29T09:34:37;95088.75;;;22.03;94.91
20017;BME280;10169;42.664;23.610;2023-05-29T09:36:38;95086.41;;;22.53;97.71
20017;BME280;10169;42.664;23.610;2023-05-29T09:38:39;95087.66;;;22.38;90.66
20017;BME280;10169;42.664;23.610;2023-05-29T09:40:39;95085.94;;;22.68;89.26
20017;BME280;10169;42.664;23.610;2023-05-29T09:42:40;95077.31;;;22.57;84.32
20017;BME280;10169;42.664;23.610;2023-05-29T09:44:41;95077.97;;;22.37;85.59
20017;BME280;10169;42.664;23.610;2023-05-29T09:46:41;95085.91;;;22.25;92.62
20017;BME280;10169;42.664;23.610;2023-05-29T09:48:42;95085.72;;;21.87;94.13
20017;BME280;10169;42.664;23.610;2023-05-29T09:50:43;95076.91;;;21.82;90.83
20017;BME280;10169;42.664;23.610;2023-05-29T09:52:49;95075.47;;;21.76;92.82
20017;BME280;10169;42.664;23.610;2023-05-29T09:54:52;95075.31;;;21.72;93.80
20017;BME280;10169;42.664;23.610;2023-05-29T09:56:53;95072.69;;;22.06;100.00
20017;BME280;10169;42.664;23.610;2023-05-29T09:58:53;95074.94;;;22.81;93.08
20017;BME280;10169;42.664;23.610;2023-05-29T10:00:56;95075.72;;;23.45;77.80
20017;BME280;10169;42.664;23.610;2023-05-29T10:02:58;95078.81;;;23.64;73.01
20017;BME280;10169;42.664;23.610;2023-05-29T10:04:58;95072.78;;;23.88;70.89
20017;BME280;10169;42.664;23.610;2023-05-29T10:07:01;95066.09;;;24.77;64.06
20017;BME280;10169;42.664;23.610;2023-05-29T10:09:05;95070.34;;;24.66;57.73
20017;BME280;10169;42.664;23.610;2023-05-29T10:11:05;95067.53;;;24.95;63.00
20017;BME280;10169;42.664;23.610;2023-05-29T10:13:12;95069.13;;;25.08;59.45
20017;BME280;10169;42.664;23.610;2023-05-29T10:15:14;95064.03;;;24.32;64.09
20017;BME280;10169;42.664;23.610;2023-05-29T10:17:15;95070.06;;;24.17;71.61
20017;BME280;10169;42.664;23.610;2023-05-29T10:19:19;95068.22;;;24.50;69.36
20017;BME280;10169;42.664;23.610;2023-05-29T10:21:22;95069.38;;;24.62;64.48
20017;BME280;10169;42.664;23.610;2023-05-29T10:23:25;95074.59;;;24.34;69.34
20017;BME280;10169;42.664;23.610;2023-05-29T10:25:27;95065.66;;;23.46;68.65
20017;BME280;10169;42.664;23.610;2023-05-29T10:27:30;95069.78;;;24.10;65.72
20017;BME280;10169;42.664;23.610;2023-05-29T10:31:39;95062.84;;;24.95;65.46
20017;BME280;10169;42.664;23.610;2023-05-29T10:38:08;95064.31;;;24.39;63.90